Time;durP1;ratioP1;P1;durP2;ratioP2;P2;SDS_P1;SDS_P2;PMS_P1;PMS_P2;Temp;Humidity;BMP_temperature;BMP_pressure;BME280_temperature;BME280_humidity;BME280_pressure;Samples;Min_cycle;Max_cycle;Signal;HPM_P1;HPM_P2
2023/07/27 00:02:08;;;;;;;;;;;;;;;23.16;61.76;94549.69;5117970;28;1060;-57
2023/07/27 00:04:34;;;;;;;;;;;;;;;23.18;61.08;94552.13;5118010;28;1906;-57
2023/07/27 00:07:00;;;;;;;;;;;;;;;23.16;61.47;94555.16;5117759;28;1032;-57
2023/07/27 00:09:26;;;;;;;;;;;;;;;23.22;60.97;94552.47;5117672;28;1103;-57
2023/07/27 00:11:52;;;;;;;;;;;;;;;23.15;61.32;94550.75;5117773;28;1083;-57
2023/07/27 00:14:18;;;;;;;;;;;;;;;23.11;61.65;94557.81;5117581;28;1238;-56
2023/07/27 00:16:45;;;;;;;;;;;;;;;23.14;61.86;94543.63;5117596;28;1036;-57
2023/07/27 00:19:11;;;;;;;;;;;;;;;23.13;61.99;94550.19;5117517;28;1098;-57
2023/07/27 00:21:37;;;;;;;;;;;;;;;23.18;61.45;94547.53;5117560;28;1040;-57
2023/07/27 00:24:03;;;;;;;;;;;;;;;23.24;61.31;94547.56;5117690;28;1052;-57
2023/07/27 00:26:29;;;;;;;;;;;;;;;23.25;61.09;94546.50;5117466;28;1910;-57
2023/07/27 00:28:55;;;;;;;;;;;;;;;23.20;61.28;94549.97;5123988;27;1181;-57
2023/07/27 00:31:21;;;;;;;;;;;;;;;23.02;62.53;94544.84;5119613;27;1028;-56
2023/07/27 00:33:47;;;;;;;;;;;;;;;23.04;62.11;94548.97;5137806;27;1048;-57
2023/07/27 00:36:13;;;;;;;;;;;;;;;22.96;62.64;94550.22;5137939;27;1069;-57
2023/07/27 00:38:38;;;;;;;;;;;;;;;22.93;62.38;94552.63;5138110;27;977;-57
2023/07/27 00:41:05;;;;;;;;;;;;;;;22.84;62.62;94549.53;5130593;27;2457;-57
2023/07/27 00:43:30;;;;;;;;;;;;;;;22.92;62.41;94548.25;5117340;28;1072;-57
2023/07/27 00:45:56;;;;;;;;;;;;;;;22.86;62.14;94547.38;5117144;28;1910;-57
2023/07/27 00:48:23;;;;;;;;;;;;;;;22.81;62.44;94545.38;5117215;28;1001;-57
2023/07/27 00:50:50;;;;;;;;;;;;;;;22.80;62.43;94540.19;5117311;28;961;-57
2023/07/27 00:53:16;;;;;;;;;;;;;;;22.75;63.58;94534.69;5117087;28;1039;-57
2023/07/27 00:55:43;;;;;;;;;;;;;;;22.77;62.94;94536.06;5116862;28;1056;-57
2023/07/27 00:58:10;;;;;;;;;;;;;;;22.83;62.93;94534.25;5116940;28;1107;-57
2023/07/27 01:00:37;;;;;;;;;;;;;;;22.83;63.14;94527.97;5116845;28;1043;-57
2023/07/27 01:03:04;;;;;;;;;;;;;;;22.83;62.67;94534.25;5116723;28;977;-57
2023/07/27 01:05:30;;;;;;;;;;;;;;;22.85;62.63;94539.44;5117274;27;3016;-57
2023/07/27 01:08:11;;;;;;;;;;;;;;;22.83;63.43;94544.31;5116677;28;1098;-57
2023/07/27 01:10:44;;;;;;;;;;;;;;;22.73;63.07;94539.56;5098389;28;1302;-57
2023/07/27 01:13:37;;;;;;;;;;;;;;;22.74;63.01;94541.19;5122698;27;2982;-57
2023/07/27 01:16:08;;;;;;;;;;;;;;;22.60;63.50;94540.75;5137085;27;1067;-57
2023/07/27 01:18:54;;;;;;;;;;;;;;;22.49;63.45;94544.41;5137211;27;969;-57
2023/07/27 01:21:24;;;;;;;;;;;;;;;22.56;62.93;94545.06;5136403;27;1309;-57
2023/07/27 01:23:50;;;;;;;;;;;;;;;22.52;62.92;94539.28;5136824;27;1090;-57
2023/07/27 01:26:19;;;;;;;;;;;;;;;22.49;63.58;94544.41;5137003;27;1909;-57
2023/07/27 01:29:08;;;;;;;;;;;;;;;22.40;64.43;94550.28;5134843;27;2265;-57
2023/07/27 01:31:41;;;;;;;;;;;;;;;22.14;63.35;94551.75;5136713;27;798;-57
2023/07/27 01:34:12;;;;;;;;;;;;;;;22.11;63.47;94557.69;5137011;27;979;-57
2023/07/27 01:36:40;;;;;;;;;;;;;;;22.06;62.79;94559.50;5136717;27;1130;-56
2023/07/27 01:39:08;;;;;;;;;;;;;;;22.07;62.55;94555.72;5136851;27;989;-57
2023/07/27 01:41:37;;;;;;;;;;;;;;;22.06;62.15;94559.50;5136739;27;1324;-57
2023/07/27 01:44:03;;;;;;;;;;;;;;;22.02;61.00;94562.72;5136527;27;1087;-57
2023/07/27 01:46:31;;;;;;;;;;;;;;;21.94;61.42;94563.13;5136640;27;1905;-57
2023/07/27 01:48:59;;;;;;;;;;;;;;;21.84;61.13;94582.00;5136464;27;1360;-57
2023/07/27 01:51:26;;;;;;;;;;;;;;;21.94;61.46;94584.88;5136614;27;1044;-57
2023/07/27 01:53:53;;;;;;;;;;;;;;;21.97;61.25;94598.00;5136681;27;1147;-57
2023/07/27 01:56:20;;;;;;;;;;;;;;;21.89;60.37;94611.19;5136235;27;1087;-57
2023/07/27 01:58:46;;;;;;;;;;;;;;;21.75;60.63;94599.78;5136345;27;989;-57
2023/07/27 02:01:12;;;;;;;;;;;;;;;21.66;60.39;94598.53;5136195;27;980;-57
2023/07/27 02:03:38;;;;;;;;;;;;;;;21.58;60.81;94606.00;5136463;27;1060;-57
2023/07/27 02:06:04;;;;;;;;;;;;;;;21.58;60.67;94611.44;5136358;27;1996;-57
2023/07/27 02:08:30;;;;;;;;;;;;;;;21.53;61.00;94613.25;5136116;27;999;-57
2023/07/27 02:11:05;;;;;;;;;;;;;;;21.39;61.75;94618.13;5136336;27;949;-57
2023/07/27 02:13:38;;;;;;;;;;;;;;;21.40;60.83;94631.47;5135857;27;1239;-57
2023/07/27 02:16:09;;;;;;;;;;;;;;;21.33;61.00;94625.34;5135995;27;1091;-57
2023/07/27 02:18:37;;;;;;;;;;;;;;;21.30;61.12;94636.69;5135323;27;1090;-57
2023/07/27 02:21:05;;;;;;;;;;;;;;;21.29;60.92;94639.66;5136000;27;957;-57
2023/07/27 02:23:31;;;;;;;;;;;;;;;21.23;61.47;94631.41;5135815;27;1026;-57
2023/07/27 02:25:57;;;;;;;;;;;;;;;21.22;61.17;94640.59;5135669;27;1910;-57
2023/07/27 02:28:28;;;;;;;;;;;;;;;21.17;61.17;94650.53;5135874;27;1208;-57
2023/07/27 02:30:54;;;;;;;;;;;;;;;21.14;61.92;94642.88;5135600;27;1001;-57
2023/07/27 02:33:20;;;;;;;;;;;;;;;21.15;61.91;94645.38;5135653;27;956;-57
2023/07/27 02:35:46;;;;;;;;;;;;;;;21.12;61.89;94645.03;5117545;27;1193;-57
2023/07/27 02:38:12;;;;;;;;;;;;;;;21.13;61.68;94650.19;5135346;27;1107;-57
2023/07/27 02:40:38;;;;;;;;;;;;;;;21.16;61.78;94652.44;5135768;27;996;-57
2023/07/27 02:43:04;;;;;;;;;;;;;;;21.06;61.76;94657.69;5135416;27;1053;-57
2023/07/27 02:45:32;;;;;;;;;;;;;;;20.98;61.61;94666.16;5135455;27;2011;-56
2023/07/27 02:47:58;;;;;;;;;;;;;;;20.96;62.03;94660.16;5135321;27;1528;-57
2023/07/27 02:50:24;;;;;;;;;;;;;;;20.90;62.05;94658.38;5135109;27;1036;-57
2023/07/27 02:52:50;;;;;;;;;;;;;;;20.97;62.04;94669.97;5135323;27;1052;-57
2023/07/27 02:55:16;;;;;;;;;;;;;;;20.95;61.73;94672.91;5135300;27;1051;-57
2023/07/27 02:57:42;;;;;;;;;;;;;;;20.98;61.94;94677.03;5135403;27;970;-57
2023/07/27 03:00:09;;;;;;;;;;;;;;;20.92;61.46;94678.00;5135273;27;1007;-57
2023/07/27 03:02:35;;;;;;;;;;;;;;;20.96;61.22;94668.31;5135272;27;1072;-56
2023/07/27 03:05:05;;;;;;;;;;;;;;;20.92;62.00;94669.84;5135052;27;1913;-57
2023/07/27 03:07:31;;;;;;;;;;;;;;;20.99;60.46;94682.25;5134927;27;965;-57
2023/07/27 03:09:57;;;;;;;;;;;;;;;20.96;61.24;94679.16;5135208;27;968;-57
2023/07/27 03:12:23;;;;;;;;;;;;;;;20.92;60.43;94669.84;5134859;27;1072;-58
2023/07/27 03:14:49;;;;;;;;;;;;;;;20.66;60.27;94667.38;5134829;27;1040;-57
2023/07/27 03:17:15;;;;;;;;;;;;;;;20.76;59.26;94669.50;5134650;27;1091;-57
2023/07/27 03:19:40;;;;;;;;;;;;;;;20.65;60.28;94678.47;5134986;27;960;-58
2023/07/27 03:22:06;;;;;;;;;;;;;;;20.57;59.68;94678.78;5134670;27;1024;-58
2023/07/27 03:24:33;;;;;;;;;;;;;;;20.44;59.88;94699.66;5134910;27;1038;-57
2023/07/27 03:26:59;;;;;;;;;;;;;;;20.34;59.85;94702.13;5121861;27;2504;-57
2023/07/27 03:29:25;;;;;;;;;;;;;;;20.36;59.81;94707.34;5123888;27;1217;-57
2023/07/27 03:31:50;;;;;;;;;;;;;;;20.31;58.72;94726.19;5134796;27;977;-57
2023/07/27 03:34:17;;;;;;;;;;;;;;;20.25;58.88;94736.09;5115922;27;2857;-57
2023/07/27 03:36:43;;;;;;;;;;;;;;;20.16;59.53;94732.06;5113953;28;1012;-56
2023/07/27 03:39:09;;;;;;;;;;;;;;;20.26;58.26;94732.31;5114063;28;1022;-58
2023/07/27 03:41:34;;;;;;;;;;;;;;;20.22;58.98;94739.25;5114184;28;1061;-58
2023/07/27 03:44:00;;;;;;;;;;;;;;;20.16;58.42;94751.06;5113846;28;966;-57
2023/07/27 03:46:26;;;;;;;;;;;;;;;20.09;58.83;94751.97;5113886;28;1984;-58
2023/07/27 03:48:52;;;;;;;;;;;;;;;20.15;58.86;94765.69;5113852;28;1075;-57
2023/07/27 03:51:18;;;;;;;;;;;;;;;20.15;58.10;94765.69;5114009;28;1025;-58
2023/07/27 03:53:44;;;;;;;;;;;;;;;20.00;59.43;94766.91;5113860;28;1029;-58
2023/07/27 03:56:10;;;;;;;;;;;;;;;20.02;59.45;94770.22;5114052;28;1190;-58
2023/07/27 03:58:36;;;;;;;;;;;;;;;20.05;59.30;94768.94;5113714;28;1080;-57
2023/07/27 04:01:02;;;;;;;;;;;;;;;20.14;58.18;94773.00;5113798;28;1137;-58
2023/07/27 04:03:28;;;;;;;;;;;;;;;20.12;58.91;94766.97;5113946;28;988;-58
2023/07/27 04:05:54;;;;;;;;;;;;;;;20.10;58.43;94766.38;5095799;28;1922;-58
2023/07/27 04:08:20;;;;;;;;;;;;;;;20.11;58.81;94773.47;5115143;28;2871;-57
2023/07/27 04:10:46;;;;;;;;;;;;;;;20.18;58.26;94789.66;5125026;28;3090;-58
2023/07/27 04:13:13;;;;;;;;;;;;;;;20.27;58.61;94785.56;5134039;28;1321;-58
2023/07/27 04:15:39;;;;;;;;;;;;;;;20.35;57.56;94793.38;5134420;28;990;-57
2023/07/27 04:18:05;;;;;;;;;;;;;;;20.28;58.88;94796.19;5134256;28;1036;-57
2023/07/27 04:20:31;;;;;;;;;;;;;;;20.34;59.24;94785.47;5134275;28;984;-57
2023/07/27 04:22:57;;;;;;;;;;;;;;;20.35;58.08;94795.25;5134403;28;1060;-58
2023/07/27 04:25:23;;;;;;;;;;;;;;;20.35;58.00;94815.09;5133888;28;1906;-58
2023/07/27 04:27:50;;;;;;;;;;;;;;;20.34;58.24;94813.44;5133987;28;1127;-57
2023/07/27 04:30:16;;;;;;;;;;;;;;;20.24;59.23;94807.72;5134177;28;1184;-58
2023/07/27 04:32:42;;;;;;;;;;;;;;;20.19;58.97;94813.84;5134157;28;1047;-57
2023/07/27 04:35:08;;;;;;;;;;;;;;;20.17;59.20;94820.56;5133828;28;1028;-57
2023/07/27 04:37:34;;;;;;;;;;;;;;;20.21;58.55;94833.44;5133983;28;928;-57
2023/07/27 04:40:00;;;;;;;;;;;;;;;20.09;58.30;94835.28;5134189;27;952;-58
2023/07/27 04:42:26;;;;;;;;;;;;;;;20.05;57.77;94847.63;5137762;27;1035;-58
2023/07/27 04:44:52;;;;;;;;;;;;;;;20.01;56.50;94846.44;5119403;27;1988;-57
2023/07/27 04:47:18;;;;;;;;;;;;;;;19.99;56.67;94856.69;5119400;27;1040;-57
2023/07/27 04:49:45;;;;;;;;;;;;;;;19.86;56.07;94855.81;5137652;27;1052;-58
2023/07/27 04:52:11;;;;;;;;;;;;;;;19.82;56.46;94859.16;5137688;27;1027;-57
2023/07/27 04:54:37;;;;;;;;;;;;;;;19.75;55.92;94867.41;5137817;27;1067;-57
2023/07/27 04:57:03;;;;;;;;;;;;;;;19.76;56.38;94873.66;5137489;27;1031;-57
2023/07/27 04:59:29;;;;;;;;;;;;;;;19.88;55.07;94886.25;5137386;27;1056;-58
2023/07/27 05:01:55;;;;;;;;;;;;;;;19.77;53.71;94905.13;5137508;27;965;-57
2023/07/27 05:04:21;;;;;;;;;;;;;;;19.60;53.73;94911.13;5137441;27;973;-58
2023/07/27 05:06:47;;;;;;;;;;;;;;;19.56;53.80;94914.47;5137421;27;1988;-58
2023/07/27 05:09:14;;;;;;;;;;;;;;;19.46;54.31;94921.25;5137132;27;1036;-58
2023/07/27 05:11:40;;;;;;;;;;;;;;;19.43;54.10;94931.72;5137466;27;1045;-58
2023/07/27 05:14:06;;;;;;;;;;;;;;;19.46;53.48;94926.69;5137072;27;1230;-58
2023/07/27 05:16:32;;;;;;;;;;;;;;;19.51;55.00;94921.41;5137253;27;1023;-58
2023/07/27 05:18:58;;;;;;;;;;;;;;;19.59;54.80;94928.41;5136903;27;1021;-57
2023/07/27 05:21:24;;;;;;;;;;;;;;;19.75;54.05;94926.22;5136896;27;1035;-58
2023/07/27 05:23:50;;;;;;;;;;;;;;;19.76;53.48;94933.31;5136889;27;1047;-57
2023/07/27 05:26:16;;;;;;;;;;;;;;;19.84;54.32;94938.44;5136758;27;1980;-58
2023/07/27 05:28:44;;;;;;;;;;;;;;;19.89;53.86;94947.56;5136659;27;1157;-57
2023/07/27 05:31:10;;;;;;;;;;;;;;;19.95;54.48;94935.00;5136730;27;913;-57
2023/07/27 05:33:36;;;;;;;;;;;;;;;19.94;53.85;94936.06;5136847;27;969;-57
2023/07/27 05:36:02;;;;;;;;;;;;;;;19.95;53.82;94943.13;5136992;27;1044;-57
2023/07/27 05:38:28;;;;;;;;;;;;;;;20.04;52.90;94938.25;5136593;27;981;-57
2023/07/27 05:40:58;;;;;;;;;;;;;;;20.04;52.07;94944.50;5136620;27;1036;-58
2023/07/27 05:43:24;;;;;;;;;;;;;;;19.99;52.80;94941.63;5136496;27;1066;-58
2023/07/27 05:45:50;;;;;;;;;;;;;;;19.94;52.84;94941.50;5136443;27;1905;-58
2023/07/27 05:48:16;;;;;;;;;;;;;;;19.95;53.18;94947.72;5136696;27;977;-58
2023/07/27 05:50:42;;;;;;;;;;;;;;;19.97;53.93;94938.31;5136486;27;913;-58
2023/07/27 05:53:07;;;;;;;;;;;;;;;19.90;52.99;94940.28;5135730;27;1035;-57
2023/07/27 05:55:33;;;;;;;;;;;;;;;20.05;53.14;94946.16;5136209;27;1547;-58
2023/07/27 05:57:59;;;;;;;;;;;;;;;20.14;52.74;94954.00;5136277;27;1032;-58
2023/07/27 06:00:26;;;;;;;;;;;;;;;20.03;53.67;94942.00;5136156;27;1000;-57
2023/07/27 06:02:52;;;;;;;;;;;;;;;19.99;54.62;94949.75;5118009;27;1032;-57
2023/07/27 06:05:18;;;;;;;;;;;;;;;19.98;53.76;94941.88;5136163;27;1905;-57
2023/07/27 06:07:44;;;;;;;;;;;;;;;20.22;52.54;94940.97;5136361;27;933;-58
2023/07/27 06:10:11;;;;;;;;;;;;;;;20.59;51.42;94945.53;5136300;27;1130;-57
2023/07/27 06:12:37;;;;;;;;;;;;;;;21.14;50.84;94947.31;5136100;27;1234;-58
2023/07/27 06:15:03;;;;;;;;;;;;;;;21.48;48.31;94943.06;5136236;27;1044;-58
2023/07/27 06:17:29;;;;;;;;;;;;;;;21.75;47.79;94937.16;5136128;27;969;-57
2023/07/27 06:19:55;;;;;;;;;;;;;;;21.95;47.45;94932.19;5136187;27;1036;-58
2023/07/27 06:22:21;;;;;;;;;;;;;;;22.01;47.23;94938.59;5135677;27;1051;-57
2023/07/27 06:24:47;;;;;;;;;;;;;;;22.18;47.05;94944.13;5135701;27;1987;-58
2023/07/27 06:27:14;;;;;;;;;;;;;;;22.30;45.67;94950.41;5135912;27;1045;-57
2023/07/27 06:29:40;;;;;;;;;;;;;;;22.44;47.22;94950.16;5135552;27;1233;-58
2023/07/27 06:32:06;;;;;;;;;;;;;;;22.48;44.98;94962.22;5135604;27;1079;-57
2023/07/27 06:34:32;;;;;;;;;;;;;;;22.58;43.60;94965.16;5135620;27;979;-57
2023/07/27 06:36:58;;;;;;;;;;;;;;;22.42;43.16;94964.00;5135519;27;1061;-57
2023/07/27 06:39:24;;;;;;;;;;;;;;;22.20;42.78;94959.16;5135338;27;1949;-58
2023/07/27 06:41:51;;;;;;;;;;;;;;;22.18;45.00;94946.88;5135521;27;973;-58
2023/07/27 06:44:17;;;;;;;;;;;;;;;22.38;44.18;94955.47;5135482;27;956;-58
2023/07/27 06:46:43;;;;;;;;;;;;;;;22.56;43.76;94954.50;5135236;27;1911;-57
2023/07/27 06:49:10;;;;;;;;;;;;;;;22.75;42.84;94952.44;5135246;27;996;-56
2023/07/27 06:51:37;;;;;;;;;;;;;;;22.81;41.90;94951.47;5116992;27;1032;-57
2023/07/27 06:54:03;;;;;;;;;;;;;;;22.94;41.75;94946.81;5117167;27;1011;-56
2023/07/27 06:56:29;;;;;;;;;;;;;;;23.27;41.58;94950.69;5134889;27;953;-57
2023/07/27 06:58:55;;;;;;;;;;;;;;;23.48;41.69;94940.97;5135291;27;1036;-57
2023/07/27 07:01:20;;;;;;;;;;;;;;;23.42;39.39;94945.50;5134934;27;995;-57
2023/07/27 07:03:46;;;;;;;;;;;;;;;23.61;40.38;94957.03;5134872;27;1087;-57
2023/07/27 07:06:12;;;;;;;;;;;;;;;23.58;40.10;94941.13;5134738;27;1913;-57
2023/07/27 07:08:38;;;;;;;;;;;;;;;23.68;39.36;94943.22;5134918;27;1051;-57
2023/07/27 07:11:05;;;;;;;;;;;;;;;23.64;40.77;94953.81;5134866;27;905;-57
2023/07/27 07:13:31;;;;;;;;;;;;;;;23.62;40.60;94944.19;5116513;27;1096;-56
2023/07/27 07:15:57;;;;;;;;;;;;;;;23.68;38.73;94956.88;5135010;27;978;-57
2023/07/27 07:18:23;;;;;;;;;;;;;;;23.41;39.50;94962.13;5135026;27;1048;-58
2023/07/27 07:20:49;;;;;;;;;;;;;;;23.19;39.24;94958.22;5134702;27;1268;-58
2023/07/27 07:23:15;;;;;;;;;;;;;;;23.29;39.44;94951.28;5134674;27;973;-58
2023/07/27 07:25:41;;;;;;;;;;;;;;;23.50;40.14;94958.75;5134612;27;1914;-58
2023/07/27 07:28:08;;;;;;;;;;;;;;;23.61;39.24;94956.19;5134848;27;1040;-57
2023/07/27 07:30:36;;;;;;;;;;;;;;;23.59;38.21;94950.97;5114019;28;1127;-57
2023/07/27 07:33:02;;;;;;;;;;;;;;;23.67;41.32;94958.75;5114144;28;1016;-57
2023/07/27 07:35:27;;;;;;;;;;;;;;;23.76;38.01;94965.47;5113705;28;1036;-56
2023/07/27 07:37:53;;;;;;;;;;;;;;;23.78;37.76;94948.84;5113862;28;1028;-58
2023/07/27 07:40:23;;;;;;;;;;;;;;;23.90;40.45;94957.81;5113718;28;1044;-58
2023/07/27 07:42:49;;;;;;;;;;;;;;;23.96;40.31;94951.34;5114487;28;970;-58
2023/07/27 07:45:15;;;;;;;;;;;;;;;24.27;40.04;94949.06;5113653;28;1987;-58
2023/07/27 07:47:41;;;;;;;;;;;;;;;24.61;39.89;94956.38;5114107;28;1049;-58
2023/07/27 07:50:08;;;;;;;;;;;;;;;24.64;37.69;94961.31;5113772;28;1950;-58
2023/07/27 07:52:34;;;;;;;;;;;;;;;24.73;37.84;94959.78;5113587;28;988;-58
2023/07/27 07:55:00;;;;;;;;;;;;;;;24.99;39.58;94955.44;5113744;28;1107;-58
2023/07/27 07:57:26;;;;;;;;;;;;;;;25.27;37.95;94950.81;5113806;28;961;-58
2023/07/27 07:59:52;;;;;;;;;;;;;;;25.46;38.56;94967.72;5113680;28;1044;-58
2023/07/27 08:02:18;;;;;;;;;;;;;;;25.47;36.88;94966.63;5113642;28;1055;-57
2023/07/27 08:04:44;;;;;;;;;;;;;;;25.19;36.70;94971.25;5113650;28;1088;-58
2023/07/27 08:07:10;;;;;;;;;;;;;;;24.74;37.17;94966.91;5113442;28;1901;-58
2023/07/27 08:09:36;;;;;;;;;;;;;;;24.82;37.73;94957.44;5115008;28;2510;-58
2023/07/27 08:12:02;;;;;;;;;;;;;;;24.86;37.05;94950.38;5113548;28;1040;-57
2023/07/27 08:14:28;;;;;;;;;;;;;;;24.42;37.61;94962.09;5113316;28;1084;-57
2023/07/27 08:16:54;;;;;;;;;;;;;;;24.39;37.28;94957.13;5116497;28;1044;-57
2023/07/27 08:19:20;;;;;;;;;;;;;;;24.71;38.36;94951.00;5117514;28;1044;-58
2023/07/27 08:21:46;;;;;;;;;;;;;;;25.06;39.52;94947.03;5117584;28;1036;-57
2023/07/27 08:24:12;;;;;;;;;;;;;;;24.68;38.52;94949.63;5117413;28;1036;-57
2023/07/27 08:26:38;;;;;;;;;;;;;;;24.82;37.65;94962.91;5117404;28;1992;-57
2023/07/27 08:29:04;;;;;;;;;;;;;;;24.30;36.73;94954.03;5125532;27;1182;-58
2023/07/27 08:31:30;;;;;;;;;;;;;;;23.96;37.43;94958.72;5137845;27;1095;-58
2023/07/27 08:33:56;;;;;;;;;;;;;;;24.24;40.09;94941.34;5119677;27;1099;-57
2023/07/27 08:36:21;;;;;;;;;;;;;;;24.96;38.47;94946.94;5138057;27;1017;-57
2023/07/27 08:38:47;;;;;;;;;;;;;;;25.26;37.55;94952.75;5137729;27;1091;-57
2023/07/27 08:41:13;;;;;;;;;;;;;;;25.37;36.34;94969.28;5137681;27;1044;-58
2023/07/27 08:43:39;;;;;;;;;;;;;;;25.46;35.85;94963.09;5137931;27;1143;-58
2023/07/27 08:46:06;;;;;;;;;;;;;;;25.42;36.49;94967.44;5137934;27;1909;-58
2023/07/27 08:48:32;;;;;;;;;;;;;;;25.36;36.03;94971.16;5137615;27;984;-57
2023/07/27 08:50:58;;;;;;;;;;;;;;;25.43;36.01;94969.06;5137904;27;1053;-58
2023/07/27 08:53:27;;;;;;;;;;;;;;;25.59;37.13;94966.47;5137698;27;968;-57
2023/07/27 08:55:53;;;;;;;;;;;;;;;25.39;34.71;94984.34;5137443;27;1028;-57
2023/07/27 08:58:19;;;;;;;;;;;;;;;24.98;35.83;94980.31;5119817;27;2485;-57
2023/07/27 09:00:45;;;;;;;;;;;;;;;25.04;37.21;94974.66;5116845;28;1076;-58
2023/07/27 09:03:12;;;;;;;;;;;;;;;25.18;36.61;94969.59;5117018;28;1079;-57
2023/07/27 09:05:45;;;;;;;;;;;;;;;25.32;36.68;94972.78;5116598;28;1905;-57
2023/07/27 09:08:12;;;;;;;;;;;;;;;25.26;35.66;94979.28;5116533;28;1050;-58
2023/07/27 09:10:39;;;;;;;;;;;;;;;25.25;35.81;94975.72;5116949;28;933;-58
2023/07/27 09:13:05;;;;;;;;;;;;;;;25.31;36.00;94987.56;5116822;28;1230;-58
2023/07/27 09:15:35;;;;;;;;;;;;;;;24.90;35.46;94973.38;5116583;28;1008;-58
2023/07/27 09:18:07;;;;;;;;;;;;;;;24.70;35.66;94983.00;5116478;28;1032;-58
2023/07/27 09:20:34;;;;;;;;;;;;;;;24.62;36.79;94985.34;5116400;28;1040;-58
2023/07/27 09:23:00;;;;;;;;;;;;;;;24.55;36.85;94975.41;5116723;28;981;-57
2023/07/27 09:25:26;;;;;;;;;;;;;;;24.64;36.38;94978.53;5116374;28;1991;-58
2023/07/27 09:27:55;;;;;;;;;;;;;;;24.62;37.28;94988.88;5115093;28;1048;-57
2023/07/27 09:30:22;;;;;;;;;;;;;;;24.75;36.52;94999.44;5134951;27;1153;-57
2023/07/27 09:32:49;;;;;;;;;;;;;;;24.65;37.33;95002.06;5136622;27;1055;-57
2023/07/27 09:35:16;;;;;;;;;;;;;;;24.61;36.53;94989.97;5136556;27;1012;-57
2023/07/27 09:37:42;;;;;;;;;;;;;;;24.80;35.91;94993.22;5136673;27;1106;-57
2023/07/27 09:40:09;;;;;;;;;;;;;;;24.50;36.67;94999.91;5113820;27;2512;-57
2023/07/27 09:42:36;;;;;;;;;;;;;;;24.46;36.78;95001.50;5116175;28;1048;-58
2023/07/27 09:45:02;;;;;;;;;;;;;;;24.60;36.71;94988.31;5116173;28;1930;-56
2023/07/27 09:47:31;;;;;;;;;;;;;;;24.80;36.17;95003.34;5115858;28;974;-57
2023/07/27 09:50:00;;;;;;;;;;;;;;;24.86;35.75;95002.31;5116765;27;2495;-57
2023/07/27 09:52:27;;;;;;;;;;;;;;;24.74;35.73;95000.53;5115417;28;2959;-57
2023/07/27 09:54:56;;;;;;;;;;;;;;;24.73;36.42;94993.41;5115635;28;1102;-57
2023/07/27 09:57:23;;;;;;;;;;;;;;;24.60;36.27;94984.75;5115531;28;990;-57
2023/07/27 09:59:49;;;;;;;;;;;;;;;24.80;37.80;94976.00;5115890;28;964;-57
2023/07/27 10:02:15;;;;;;;;;;;;;;;24.77;35.90;94987.44;5115303;28;1060;-57
2023/07/27 10:04:42;;;;;;;;;;;;;;;24.56;35.28;94992.63;5115704;28;1058;-58
2023/07/27 10:07:08;;;;;;;;;;;;;;;24.66;36.25;94987.31;5115296;28;1926;-57
2023/07/27 10:09:36;;;;;;;;;;;;;;;24.72;34.97;94994.50;5115830;28;958;-57
2023/07/27 10:12:04;;;;;;;;;;;;;;;24.56;36.08;94987.16;5115359;28;1032;-57
2023/07/27 10:14:31;;;;;;;;;;;;;;;24.48;36.39;94982.13;5115151;28;1257;-57
2023/07/27 10:16:57;;;;;;;;;;;;;;;24.52;36.09;94977.81;5115190;28;999;-57
2023/07/27 10:19:23;;;;;;;;;;;;;;;24.43;35.71;94992.97;5115014;28;898;-57
2023/07/27 10:21:49;;;;;;;;;;;;;;;24.49;35.08;94975.56;5126233;27;2461;-57
2023/07/27 10:24:19;;;;;;;;;;;;;;;24.62;37.20;94966.19;5156535;27;975;-57
2023/07/27 10:26:52;;;;;;;;;;;;;;;24.64;35.12;94972.25;5156500;27;1914;-57
2023/07/27 10:29:26;;;;;;;;;;;;;;;24.67;36.14;94960.81;5146215;27;1208;-57
2023/07/27 10:32:02;;;;;;;;;;;;;;;25.00;36.16;94968.03;5135750;27;1032;-57
2023/07/27 10:34:29;;;;;;;;;;;;;;;25.20;36.79;94966.63;5132652;27;2951;-57
2023/07/27 10:36:59;;;;;;;;;;;;;;;25.12;35.52;94973.38;5115200;28;977;-57
2023/07/27 10:39:31;;;;;;;;;;;;;;;25.18;37.38;94950.44;5114319;28;1059;-57
2023/07/27 10:42:00;;;;;;;;;;;;;;;25.10;36.10;94959.94;5114742;28;1174;-58
2023/07/27 10:44:45;;;;;;;;;;;;;;;24.97;35.91;94952.16;5114279;28;1095;-58
2023/07/27 10:47:15;;;;;;;;;;;;;;;25.13;36.92;94951.22;5114518;28;1910;-57
2023/07/27 10:49:43;;;;;;;;;;;;;;;25.43;36.62;94958.13;5114759;28;1020;-58
2023/07/27 10:52:09;;;;;;;;;;;;;;;25.48;36.50;94955.44;5114766;28;1033;-57
2023/07/27 10:54:39;;;;;;;;;;;;;;;25.48;36.07;94944.50;5114645;28;1033;-57
2023/07/27 10:57:07;;;;;;;;;;;;;;;25.36;36.60;94941.06;5114896;28;1000;-58
2023/07/27 10:59:35;;;;;;;;;;;;;;;25.44;36.57;94942.50;5114654;28;961;-57
2023/07/27 11:02:03;;;;;;;;;;;;;;;25.40;35.70;94941.38;5114525;28;1111;-57
2023/07/27 11:04:29;;;;;;;;;;;;;;;25.20;35.77;94937.34;5114323;28;1052;-58
2023/07/27 11:06:55;;;;;;;;;;;;;;;25.13;35.08;94931.25;5114322;28;1914;-57
2023/07/27 11:09:21;;;;;;;;;;;;;;;25.18;36.64;94939.50;5114608;28;1375;-58
2023/07/27 11:11:49;;;;;;;;;;;;;;;25.20;36.67;94925.59;5114487;28;1047;-58
2023/07/27 11:14:15;;;;;;;;;;;;;;;25.40;34.93;94927.69;5114019;28;1210;-58
2023/07/27 11:16:41;;;;;;;;;;;;;;;25.43;36.95;94914.31;5114295;28;1064;-57
2023/07/27 11:19:09;;;;;;;;;;;;;;;25.52;35.63;94923.72;5096473;28;1068;-58
2023/07/27 11:21:38;;;;;;;;;;;;;;;25.43;35.18;94925.28;5114172;28;1107;-57
2023/07/27 11:24:05;;;;;;;;;;;;;;;25.51;35.09;94926.72;5114111;28;1511;-58
2023/07/27 11:26:31;;;;;;;;;;;;;;;25.56;35.63;94923.22;5114298;28;1901;-57
2023/07/27 11:28:57;;;;;;;;;;;;;;;25.54;35.70;94918.00;5121008;27;1190;-57
2023/07/27 11:31:23;;;;;;;;;;;;;;;25.46;35.84;94929.38;5134665;27;1046;-57
2023/07/27 11:33:49;;;;;;;;;;;;;;;25.35;35.80;94922.19;5134837;27;1263;-57
2023/07/27 11:36:15;;;;;;;;;;;;;;;25.43;36.09;94919.81;5134740;27;1027;-57
2023/07/27 11:38:41;;;;;;;;;;;;;;;25.44;36.25;94916.00;5116206;27;1032;-57
2023/07/27 11:41:07;;;;;;;;;;;;;;;25.45;36.99;94917.63;5134671;27;999;-58
2023/07/27 11:43:33;;;;;;;;;;;;;;;25.58;35.43;94927.31;5134446;27;964;-57
2023/07/27 11:46:00;;;;;;;;;;;;;;;25.37;34.28;94937.25;5134259;27;1898;-57
2023/07/27 11:48:27;;;;;;;;;;;;;;;25.30;34.75;94940.19;5134299;27;1107;-57
2023/07/27 11:51:02;;;;;;;;;;;;;;;25.38;34.97;94940.81;5133509;27;962;-57
2023/07/27 11:56:54;;;;;;;;;;;;;;;25.39;34.70;94945.22;5134206;28;781;-58
2023/07/27 11:59:21;;;;;;;;;;;;;;;25.43;35.44;94938.13;5134228;28;1219;-57
2023/07/27 12:01:51;;;;;;;;;;;;;;;25.49;34.18;94934.34;5115944;28;769;-57
2023/07/27 12:04:18;;;;;;;;;;;;;;;25.27;35.21;94921.59;5127069;28;2857;-58
2023/07/27 12:06:45;;;;;;;;;;;;;;;25.43;34.47;94929.94;5113607;28;1914;-57
2023/07/27 12:09:11;;;;;;;;;;;;;;;25.35;34.53;94933.97;5113578;28;991;-57
2023/07/27 12:11:38;;;;;;;;;;;;;;;25.26;34.66;94938.25;5113937;28;1123;-58
2023/07/27 12:14:05;;;;;;;;;;;;;;;25.35;34.94;94942.16;5095372;28;1230;-57
2023/07/27 12:16:38;;;;;;;;;;;;;;;25.52;35.07;94942.06;5113429;28;1091;-57
2023/07/27 12:19:07;;;;;;;;;;;;;;;25.70;35.09;94932.63;5113587;28;1052;-57
2023/07/27 12:21:37;;;;;;;;;;;;;;;25.86;34.58;94933.56;5113791;28;972;-57
2023/07/27 12:24:07;;;;;;;;;;;;;;;25.80;35.35;94938.19;5113605;28;1040;-57
2023/07/27 12:26:33;;;;;;;;;;;;;;;25.79;35.31;94950.22;5113346;28;2020;-57
2023/07/27 12:28:59;;;;;;;;;;;;;;;25.71;35.01;94932.34;5120827;28;1189;-58
2023/07/27 12:31:25;;;;;;;;;;;;;;;25.57;35.04;94936.59;5115996;28;965;-57
2023/07/27 12:33:51;;;;;;;;;;;;;;;25.54;34.96;94934.41;5134144;28;954;-57
2023/07/27 12:36:18;;;;;;;;;;;;;;;25.49;35.18;94932.44;5115725;28;1110;-57
2023/07/27 12:38:45;;;;;;;;;;;;;;;25.55;35.55;94927.00;5115951;28;1492;-57
2023/07/27 12:41:11;;;;;;;;;;;;;;;25.71;35.42;94926.06;5134021;28;969;-57
2023/07/27 12:43:37;;;;;;;;;;;;;;;25.84;35.04;94935.75;5133990;28;1515;-58
2023/07/27 12:46:04;;;;;;;;;;;;;;;25.81;34.71;94937.09;5133778;28;1913;-58
2023/07/27 12:48:31;;;;;;;;;;;;;;;25.73;35.60;94931.28;5133704;28;1106;-57
2023/07/27 12:50:57;;;;;;;;;;;;;;;25.55;34.28;94930.56;5133779;28;1060;-58
2023/07/27 12:53:46;;;;;;;;;;;;;;;25.50;34.32;94930.53;5118452;28;1548;-57
2023/07/27 12:56:12;;;;;;;;;;;;;;;25.43;34.31;94930.75;5133633;28;1099;-57
2023/07/27 12:58:38;;;;;;;;;;;;;;;25.52;35.88;94937.41;5133884;28;1064;-58
2023/07/27 13:01:05;;;;;;;;;;;;;;;25.68;34.60;94938.34;5133859;27;1059;-57
2023/07/27 13:03:32;;;;;;;;;;;;;;;25.86;34.58;94939.88;5137209;27;1024;-57